BAW6RB EGLL-KPHL
Flight info
| Callsign | BAW6RB |
|---|---|
| Flight time | N/A |
| Altitude | 36000 |
| Route | CPT5J CPT L9 BUCGO DCT FELCA DCT OFSOX DCT BANBA DCT LODLA DCT DOLIP DCT LIMRI/M085F370 NATF TUDEP/N0486F380 N520C TUSKY DCT LARIE Q220 RIFLE Q439 BRIGS JIIMS4 |
| Aircraft | A35K/H-SBDE1E2E3GHIJ1J3J4J5J6M1M2P2RWXYZ/LB1D1 |
Departure
| Time | 2026-05-05 13:39 |
|---|---|
| Airport | London Heathrow Airport (EGLL) |
Arrival
| Time | N/A |
|---|---|
| Airport | Philadelphia International Airport (KPHL) |
| Time | Latitude | Longitude | Altitude | Speed | Heading |
|---|---|---|---|---|---|
| 2026-05-05 13:11 | 51.46835 | -0.47099 | 92 ft | 0 kts | 359° |
| 2026-05-05 13:22 | 51.46826 | -0.47099 | 92 ft | 3 kts | 359° |
| 2026-05-05 13:22 | 51.46806 | -0.47099 | 94 ft | 3 kts | 359° |
| 2026-05-05 13:22 | 51.46793 | -0.47099 | 94 ft | 3 kts | 359° |
| 2026-05-05 13:22 | 51.46772 | -0.47098 | 94 ft | 3 kts | 351° |
| 2026-05-05 13:23 | 51.46755 | -0.47090 | 92 ft | 3 kts | 316° |
| 2026-05-05 13:23 | 51.46747 | -0.47069 | 94 ft | 2 kts | 271° |
| 2026-05-05 13:23 | 51.46747 | -0.47050 | 91 ft | 3 kts | 269° |
| 2026-05-05 13:23 | 51.46747 | -0.47020 | 93 ft | 3 kts | 269° |
| 2026-05-05 13:24 | 51.46747 | -0.47007 | 92 ft | 0 kts | 269° |
| 2026-05-05 13:24 | 51.46747 | -0.47008 | 92 ft | 0 kts | 269° |
| 2026-05-05 13:26 | 51.46747 | -0.47021 | 96 ft | 2 kts | 269° |
| 2026-05-05 13:26 | 51.46747 | -0.47059 | 95 ft | 4 kts | 269° |
| 2026-05-05 13:27 | 51.46746 | -0.47122 | 95 ft | 7 kts | 269° |
| 2026-05-05 13:27 | 51.46746 | -0.47206 | 95 ft | 9 kts | 269° |
| 2026-05-05 13:27 | 51.46746 | -0.47244 | 95 ft | 0 kts | 269° |
| 2026-05-05 13:27 | 51.46742 | -0.47299 | 93 ft | 5 kts | 252° |
| 2026-05-05 13:28 | 51.46728 | -0.47323 | 97 ft | 3 kts | 219° |
| 2026-05-05 13:28 | 51.46681 | -0.47358 | 96 ft | 11 kts | 217° |
| 2026-05-05 13:28 | 51.46656 | -0.47477 | 96 ft | 13 kts | 268° |
| 2026-05-05 13:28 | 51.46654 | -0.47628 | 94 ft | 15 kts | 269° |
| 2026-05-05 13:29 | 51.46654 | -0.47799 | 92 ft | 15 kts | 270° |
| 2026-05-05 13:29 | 51.46653 | -0.47978 | 92 ft | 17 kts | 270° |
| 2026-05-05 13:29 | 51.46653 | -0.48171 | 94 ft | 17 kts | 270° |
| 2026-05-05 13:29 | 51.46652 | -0.48344 | 94 ft | 12 kts | 269° |
| 2026-05-05 13:30 | 51.46651 | -0.48444 | 95 ft | 0 kts | 269° |
| 2026-05-05 13:31 | 51.46651 | -0.48482 | 92 ft | 9 kts | 269° |
| 2026-05-05 13:32 | 51.46651 | -0.48508 | 92 ft | 0 kts | 271° |
| 2026-05-05 13:32 | 51.46651 | -0.48511 | 93 ft | 0 kts | 271° |
| 2026-05-05 13:32 | 51.46651 | -0.48512 | 94 ft | 0 kts | 271° |
| 2026-05-05 13:32 | 51.46651 | -0.48516 | 94 ft | 2 kts | 271° |
| 2026-05-05 13:33 | 51.46652 | -0.48543 | 92 ft | 0 kts | 271° |
| 2026-05-05 13:33 | 51.46652 | -0.48553 | 92 ft | 2 kts | 271° |
| 2026-05-05 13:33 | 51.46652 | -0.48583 | 92 ft | 0 kts | 271° |
| 2026-05-05 13:34 | 51.46652 | -0.48599 | 92 ft | 3 kts | 271° |
| 2026-05-05 13:34 | 51.46652 | -0.48649 | 92 ft | 6 kts | 270° |
| 2026-05-05 13:34 | 51.46652 | -0.48655 | 92 ft | 0 kts | 270° |
| 2026-05-05 13:36 | 51.46652 | -0.48665 | 92 ft | 2 kts | 270° |
| 2026-05-05 13:36 | 51.46650 | -0.48704 | 93 ft | 4 kts | 256° |
| 2026-05-05 13:36 | 51.46628 | -0.48749 | 97 ft | 6 kts | 222° |
| 2026-05-05 13:36 | 51.46614 | -0.48758 | 96 ft | 0 kts | 199° |
| 2026-05-05 13:37 | 51.46612 | -0.48759 | 96 ft | 1 kts | 199° |
| 2026-05-05 13:37 | 51.46558 | -0.48777 | 95 ft | 11 kts | 181° |
| 2026-05-05 13:38 | 51.46487 | -0.48721 | 96 ft | 12 kts | 123° |
| 2026-05-05 13:38 | 51.46479 | -0.48627 | 93 ft | 0 kts | 90° |
| 2026-05-05 13:38 | 51.46479 | -0.48610 | 94 ft | 3 kts | 90° |
| 2026-05-05 13:38 | 51.46480 | -0.48496 | 95 ft | 31 kts | 90° |
| 2026-05-05 13:39 | 51.46481 | -0.47755 | 94 ft | 100 kts | 90° |
| 2026-05-05 13:39 | 51.46488 | -0.46315 | 95 ft | 157 kts | 91° |
| 2026-05-05 13:39 | 51.46483 | -0.44500 | 534 ft | 171 kts | 88° |
| 2026-05-05 13:39 | 51.46488 | -0.42585 | 1249 ft | 177 kts | 86° |
| 2026-05-05 13:40 | 51.46052 | -0.40762 | 1947 ft | 186 kts | 132° |
| 2026-05-05 13:40 | 51.44763 | -0.39910 | 2263 ft | 220 kts | 173° |
| 2026-05-05 13:40 | 51.43226 | -0.40325 | 2793 ft | 237 kts | 205° |
| 2026-05-05 13:40 | 51.41804 | -0.41791 | 3266 ft | 253 kts | 218° |
| 2026-05-05 13:41 | 51.40440 | -0.43713 | 3706 ft | 267 kts | 230° |
| 2026-05-05 13:41 | 51.39535 | -0.46295 | 4415 ft | 267 kts | 256° |
| 2026-05-05 13:41 | 51.39351 | -0.49240 | 5113 ft | 268 kts | 274° |
| 2026-05-05 13:41 | 51.39553 | -0.52175 | 5718 ft | 271 kts | 281° |
| 2026-05-05 13:42 | 51.39964 | -0.55175 | 6470 ft | 273 kts | 285° |
| 2026-05-05 13:42 | 51.40451 | -0.58114 | 7287 ft | 274 kts | 286° |
| 2026-05-05 13:42 | 51.40947 | -0.61068 | 8070 ft | 277 kts | 285° |
| 2026-05-05 13:42 | 51.41424 | -0.64081 | 8875 ft | 280 kts | 285° |
| 2026-05-05 13:43 | 51.41880 | -0.67141 | 9626 ft | 284 kts | 284° |
| 2026-05-05 13:43 | 51.42316 | -0.70234 | 10261 ft | 289 kts | 283° |
| 2026-05-05 13:43 | 51.42756 | -0.73474 | 10583 ft | 306 kts | 283° |
| 2026-05-05 13:43 | 51.43213 | -0.76898 | 10878 ft | 322 kts | 283° |
| 2026-05-05 13:44 | 51.43690 | -0.80487 | 11165 ft | 337 kts | 283° |
| 2026-05-05 13:44 | 51.44191 | -0.84243 | 11460 ft | 351 kts | 283° |
| 2026-05-05 13:44 | 51.44711 | -0.88146 | 11742 ft | 365 kts | 282° |
| 2026-05-05 13:44 | 51.45245 | -0.92170 | 12133 ft | 374 kts | 283° |
| 2026-05-05 13:45 | 51.45790 | -0.96279 | 12687 ft | 378 kts | 283° |
| 2026-05-05 13:45 | 51.46337 | -1.00413 | 13219 ft | 383 kts | 282° |
| 2026-05-05 13:45 | 51.46892 | -1.04622 | 13720 ft | 388 kts | 283° |
| 2026-05-05 13:45 | 51.47451 | -1.08868 | 14261 ft | 390 kts | 283° |
| 2026-05-05 13:46 | 51.48012 | -1.13148 | 14774 ft | 393 kts | 282° |
| 2026-05-05 13:46 | 51.48619 | -1.17429 | 15296 ft | 396 kts | 287° |
| 2026-05-05 13:46 | 51.49673 | -1.21500 | 15835 ft | 396 kts | 300° |
| 2026-05-05 13:46 | 51.51301 | -1.25075 | 16371 ft | 398 kts | 311° |
| 2026-05-05 13:47 | 51.53189 | -1.28348 | 16865 ft | 401 kts | 315° |
| 2026-05-05 13:47 | 51.55205 | -1.31476 | 17394 ft | 404 kts | 317° |
| 2026-05-05 13:47 | 51.57283 | -1.34546 | 17884 ft | 407 kts | 317° |
| 2026-05-05 13:47 | 51.59358 | -1.37676 | 18322 ft | 411 kts | 313° |
| 2026-05-05 13:48 | 51.61135 | -1.41270 | 18793 ft | 413 kts | 303° |
| 2026-05-05 13:48 | 51.62682 | -1.45183 | 19252 ft | 414 kts | 300° |
| 2026-05-05 13:48 | 51.64112 | -1.49206 | 19742 ft | 415 kts | 298° |
| 2026-05-05 13:48 | 51.65485 | -1.53307 | 20216 ft | 416 kts | 297° |
| 2026-05-05 13:49 | 51.66833 | -1.57447 | 20639 ft | 419 kts | 296° |
| 2026-05-05 13:49 | 51.68166 | -1.61555 | 21155 ft | 419 kts | 296° |
| 2026-05-05 13:49 | 51.69462 | -1.65778 | 21554 ft | 422 kts | 291° |
| 2026-05-05 13:49 | 51.70363 | -1.70281 | 21992 ft | 423 kts | 281° |
| 2026-05-05 13:50 | 51.70910 | -1.74945 | 22421 ft | 425 kts | 278° |
| 2026-05-05 13:50 | 51.71331 | -1.79668 | 22841 ft | 427 kts | 276° |
| 2026-05-05 13:50 | 51.71681 | -1.84439 | 23267 ft | 430 kts | 275° |
| 2026-05-05 13:50 | 51.72006 | -1.89242 | 23694 ft | 432 kts | 275° |
| 2026-05-05 13:51 | 51.72324 | -1.94073 | 24065 ft | 434 kts | 274° |
| 2026-05-05 13:51 | 51.72649 | -1.98936 | 24376 ft | 438 kts | 274° |
| 2026-05-05 13:51 | 51.72979 | -2.03841 | 24726 ft | 441 kts | 275° |
| 2026-05-05 13:51 | 51.73323 | -2.08760 | 25137 ft | 442 kts | 275° |
| 2026-05-05 13:52 | 51.73666 | -2.13695 | 25517 ft | 445 kts | 275° |
| 2026-05-05 13:52 | 51.74010 | -2.18661 | 25934 ft | 446 kts | 275° |
| 2026-05-05 13:52 | 51.74350 | -2.23651 | 26347 ft | 448 kts | 274° |
| 2026-05-05 13:52 | 51.74688 | -2.28663 | 26738 ft | 450 kts | 275° |
| 2026-05-05 13:53 | 51.75027 | -2.33704 | 27137 ft | 453 kts | 274° |
| 2026-05-05 13:53 | 51.75362 | -2.38690 | 27548 ft | 455 kts | 274° |
| 2026-05-05 13:53 | 51.75703 | -2.43786 | 27973 ft | 456 kts | 274° |
| 2026-05-05 13:53 | 51.76042 | -2.48878 | 28491 ft | 457 kts | 274° |
| 2026-05-05 13:54 | 51.76381 | -2.53992 | 28907 ft | 459 kts | 274° |
| 2026-05-05 13:54 | 51.76723 | -2.59131 | 29287 ft | 461 kts | 274° |
| 2026-05-05 13:54 | 51.77064 | -2.64296 | 29675 ft | 464 kts | 274° |
| 2026-05-05 13:54 | 51.77403 | -2.69479 | 30054 ft | 466 kts | 274° |
| 2026-05-05 13:55 | 51.77736 | -2.74698 | 30366 ft | 468 kts | 274° |
| 2026-05-05 13:55 | 51.78068 | -2.79968 | 30530 ft | 474 kts | 274° |
| 2026-05-05 13:55 | 51.78402 | -2.85287 | 30817 ft | 476 kts | 274° |
| 2026-05-05 13:55 | 51.78735 | -2.90588 | 31256 ft | 475 kts | 274° |
| 2026-05-05 13:56 | 51.79065 | -2.95893 | 31608 ft | 476 kts | 274° |
| 2026-05-05 13:56 | 51.79389 | -3.01134 | 32067 ft | 474 kts | 275° |
| 2026-05-05 13:56 | 51.79717 | -3.06454 | 32347 ft | 476 kts | 274° |
| 2026-05-05 13:56 | 51.80044 | -3.11779 | 32628 ft | 478 kts | 275° |
| 2026-05-05 13:57 | 51.80367 | -3.17121 | 33030 ft | 477 kts | 275° |
| 2026-05-05 13:57 | 51.80686 | -3.22451 | 33399 ft | 476 kts | 275° |
| 2026-05-05 13:57 | 51.81006 | -3.27786 | 33765 ft | 477 kts | 275° |
| 2026-05-05 13:57 | 51.81324 | -3.33123 | 34051 ft | 478 kts | 275° |
| 2026-05-05 13:58 | 51.81639 | -3.38466 | 34317 ft | 478 kts | 275° |
| 2026-05-05 13:58 | 51.81952 | -3.43812 | 34639 ft | 478 kts | 276° |
| 2026-05-05 13:58 | 51.82262 | -3.49158 | 34877 ft | 479 kts | 276° |
| 2026-05-05 13:58 | 51.82692 | -3.54496 | 35155 ft | 478 kts | 281° |
| 2026-05-05 13:59 | 51.83966 | -3.65039 | 35708 ft | 478 kts | 282° |
| 2026-05-05 13:59 | 51.84642 | -3.70308 | 35967 ft | 479 kts | 282° |
| 2026-05-05 14:00 | 51.86478 | -3.84454 | 36018 ft | 484 kts | 282° |
| 2026-05-05 14:00 | 51.88066 | -3.96855 | 36023 ft | 485 kts | 282° |
| 2026-05-05 14:01 | 51.89428 | -4.07563 | 36017 ft | 485 kts | 282° |
| 2026-05-05 14:01 | 51.90769 | -4.18268 | 36027 ft | 485 kts | 282° |
| 2026-05-05 14:02 | 51.92105 | -4.29011 | 36031 ft | 486 kts | 282° |
| 2026-05-05 14:02 | 51.93421 | -4.39744 | 36032 ft | 486 kts | 282° |
| 2026-05-05 14:03 | 51.94734 | -4.50474 | 36047 ft | 485 kts | 282° |
| 2026-05-05 14:03 | 51.96042 | -4.61200 | 36043 ft | 484 kts | 282° |
| 2026-05-05 14:04 | 51.97323 | -4.71823 | 36046 ft | 482 kts | 282° |
| 2026-05-05 14:04 | 51.98612 | -4.82491 | 36048 ft | 482 kts | 281° |
| 2026-05-05 14:05 | 51.99868 | -4.93166 | 36055 ft | 482 kts | 281° |
| 2026-05-05 14:05 | 52.01128 | -5.03816 | 36054 ft | 480 kts | 281° |
| 2026-05-05 14:06 | 52.02326 | -5.14478 | 36058 ft | 480 kts | 279° |
| 2026-05-05 14:06 | 52.02505 | -5.25294 | 36056 ft | 480 kts | 266° |
| 2026-05-05 14:07 | 52.01854 | -5.36112 | 36062 ft | 482 kts | 264° |
| 2026-05-05 14:07 | 52.01064 | -5.46907 | 36061 ft | 481 kts | 264° |
| 2026-05-05 14:08 | 52.00273 | -5.57642 | 36057 ft | 482 kts | 264° |
| 2026-05-05 14:08 | 51.99465 | -5.68416 | 36066 ft | 482 kts | 264° |
| 2026-05-05 14:09 | 51.98669 | -5.79206 | 36068 ft | 481 kts | 264° |
| 2026-05-05 14:09 | 51.97869 | -5.89999 | 36069 ft | 481 kts | 263° |
| 2026-05-05 14:10 | 51.97068 | -6.00753 | 36065 ft | 479 kts | 264° |
| 2026-05-05 14:10 | 51.96248 | -6.11485 | 36067 ft | 479 kts | 263° |
| 2026-05-05 14:11 | 51.95461 | -6.22207 | 36065 ft | 479 kts | 266° |
| 2026-05-05 14:11 | 51.95396 | -6.33008 | 36072 ft | 479 kts | 271° |
| 2026-05-05 14:12 | 51.95530 | -6.43785 | 36068 ft | 478 kts | 271° |
| 2026-05-05 14:12 | 51.95682 | -6.54550 | 36068 ft | 478 kts | 271° |
| 2026-05-05 14:13 | 51.95809 | -6.65334 | 36069 ft | 478 kts | 271° |
| 2026-05-05 14:13 | 51.95919 | -6.76111 | 36065 ft | 478 kts | 271° |
| 2026-05-05 14:14 | 51.96020 | -6.86889 | 36062 ft | 478 kts | 271° |
| 2026-05-05 14:14 | 51.96110 | -6.97584 | 36066 ft | 477 kts | 271° |
| 2026-05-05 14:15 | 51.96191 | -7.08335 | 36075 ft | 477 kts | 271° |
| 2026-05-05 14:15 | 51.96263 | -7.19106 | 36073 ft | 477 kts | 271° |
| 2026-05-05 14:16 | 51.96325 | -7.29861 | 36073 ft | 477 kts | 271° |
| 2026-05-05 14:16 | 51.96377 | -7.40608 | 36073 ft | 477 kts | 271° |
| 2026-05-05 14:17 | 51.96419 | -7.51361 | 36069 ft | 477 kts | 271° |
| 2026-05-05 14:17 | 51.96452 | -7.62111 | 36072 ft | 477 kts | 270° |
| 2026-05-05 14:18 | 51.96474 | -7.72864 | 36082 ft | 477 kts | 270° |
| 2026-05-05 14:18 | 51.96487 | -7.83619 | 36081 ft | 477 kts | 270° |
| 2026-05-05 14:19 | 51.96498 | -7.94361 | 36085 ft | 477 kts | 270° |
| 2026-05-05 14:19 | 51.96483 | -8.05103 | 36085 ft | 477 kts | 270° |
| 2026-05-05 14:20 | 51.96465 | -8.15863 | 36086 ft | 477 kts | 270° |
| 2026-05-05 14:20 | 51.96440 | -8.26546 | 36085 ft | 477 kts | 270° |
| 2026-05-05 14:21 | 51.96404 | -8.37365 | 36083 ft | 477 kts | 270° |
| 2026-05-05 14:21 | 51.96359 | -8.48109 | 36075 ft | 476 kts | 270° |
| 2026-05-05 14:22 | 51.96305 | -8.58777 | 36076 ft | 476 kts | 270° |
| 2026-05-05 14:22 | 51.96239 | -8.69519 | 36078 ft | 476 kts | 270° |
| 2026-05-05 14:23 | 51.96177 | -8.78519 | 36081 ft | 475 kts | 270° |
| 2026-05-05 14:23 | 51.96093 | -8.89221 | 36085 ft | 474 kts | 270° |
| 2026-05-05 14:24 | 51.96000 | -8.99908 | 36088 ft | 474 kts | 270° |
| 2026-05-05 14:24 | 51.95899 | -9.10529 | 36091 ft | 474 kts | 270° |
| 2026-05-05 14:25 | 51.95814 | -9.18772 | 36090 ft | 474 kts | 269° |
| 2026-05-05 14:25 | 51.95778 | -9.22123 | 36095 ft | 474 kts | 269° |
| 2026-05-05 14:26 | 51.95655 | -9.32822 | 36088 ft | 474 kts | 269° |
| 2026-05-05 14:26 | 51.95524 | -9.43490 | 36102 ft | 473 kts | 269° |
| 2026-05-05 14:27 | 51.95382 | -9.54158 | 36103 ft | 473 kts | 269° |
| 2026-05-05 14:27 | 51.95231 | -9.64818 | 36105 ft | 473 kts | 269° |
| 2026-05-05 14:28 | 51.95070 | -9.75486 | 36105 ft | 473 kts | 269° |
| 2026-05-05 14:28 | 51.94900 | -9.86155 | 36106 ft | 473 kts | 269° |
| 2026-05-05 14:29 | 51.94720 | -9.96832 | 36107 ft | 474 kts | 269° |
| 2026-05-05 14:29 | 51.94530 | -10.07512 | 36108 ft | 474 kts | 269° |
| 2026-05-05 14:30 | 51.94332 | -10.18126 | 36112 ft | 474 kts | 269° |
| 2026-05-05 14:30 | 51.94122 | -10.28802 | 36119 ft | 474 kts | 269° |
| 2026-05-05 14:31 | 51.93904 | -10.39472 | 36116 ft | 474 kts | 269° |
| 2026-05-05 14:31 | 51.93684 | -10.50154 | 36119 ft | 474 kts | 270° |
| 2026-05-05 14:32 | 51.94005 | -10.60815 | 36127 ft | 473 kts | 274° |
| 2026-05-05 14:32 | 51.94506 | -10.71462 | 36127 ft | 473 kts | 275° |
| 2026-05-05 14:33 | 51.95027 | -10.82102 | 36128 ft | 473 kts | 275° |
| 2026-05-05 14:33 | 51.95534 | -10.92737 | 36132 ft | 473 kts | 275° |
| 2026-05-05 14:34 | 51.96020 | -11.03302 | 36135 ft | 473 kts | 275° |
| 2026-05-05 14:34 | 51.96497 | -11.13927 | 36135 ft | 473 kts | 275° |
| 2026-05-05 14:35 | 51.96965 | -11.24568 | 36140 ft | 473 kts | 275° |
| 2026-05-05 14:35 | 51.97424 | -11.35214 | 36139 ft | 472 kts | 275° |
| 2026-05-05 14:36 | 51.97871 | -11.45811 | 36143 ft | 470 kts | 274° |
| 2026-05-05 14:36 | 51.98308 | -11.56393 | 36143 ft | 470 kts | 274° |
| 2026-05-05 14:37 | 51.98735 | -11.66972 | 36148 ft | 470 kts | 274° |
| 2026-05-05 14:37 | 51.99153 | -11.77549 | 36148 ft | 470 kts | 274° |
| 2026-05-05 14:38 | 51.99558 | -11.88061 | 36151 ft | 470 kts | 274° |
| 2026-05-05 14:38 | 51.99957 | -11.98640 | 36151 ft | 469 kts | 274° |
| 2026-05-05 14:39 | 52.00236 | -12.09235 | 36154 ft | 469 kts | 271° |
| 2026-05-05 14:39 | 52.00305 | -12.19830 | 36154 ft | 470 kts | 271° |
| 2026-05-05 14:40 | 52.00366 | -12.30428 | 36162 ft | 469 kts | 271° |
| 2026-05-05 14:40 | 52.00453 | -12.41035 | 36162 ft | 469 kts | 271° |
| 2026-05-05 14:41 | 52.00545 | -12.51552 | 36166 ft | 469 kts | 271° |
| 2026-05-05 14:41 | 52.00632 | -12.62210 | 36170 ft | 469 kts | 271° |
| 2026-05-05 14:42 | 52.00707 | -12.72797 | 36170 ft | 469 kts | 271° |
| 2026-05-05 14:42 | 52.00772 | -12.83380 | 36166 ft | 469 kts | 271° |
| 2026-05-05 14:43 | 52.00827 | -12.93951 | 36170 ft | 468 kts | 271° |
| 2026-05-05 14:43 | 52.00872 | -13.04512 | 36175 ft | 468 kts | 271° |
| 2026-05-05 14:44 | 52.00908 | -13.15005 | 36175 ft | 468 kts | 271° |
| 2026-05-05 14:44 | 52.00934 | -13.25564 | 36178 ft | 468 kts | 271° |
| 2026-05-05 14:45 | 52.00952 | -13.36122 | 36182 ft | 467 kts | 271° |
| 2026-05-05 14:45 | 52.00959 | -13.46654 | 36184 ft | 466 kts | 270° |
| 2026-05-05 14:46 | 52.00958 | -13.57171 | 36184 ft | 466 kts | 270° |
| 2026-05-05 14:46 | 52.00947 | -13.67697 | 36186 ft | 466 kts | 270° |
| 2026-05-05 14:47 | 52.00926 | -13.78222 | 36186 ft | 466 kts | 270° |
| 2026-05-05 14:47 | 52.00896 | -13.88743 | 36192 ft | 466 kts | 270° |
| 2026-05-05 14:48 | 52.00857 | -13.99244 | 36190 ft | 465 kts | 270° |
| 2026-05-05 14:48 | 52.00809 | -14.09754 | 36195 ft | 465 kts | 270° |
| 2026-05-05 14:49 | 52.00751 | -14.20265 | 36195 ft | 465 kts | 270° |
| 2026-05-05 14:49 | 52.00684 | -14.30781 | 36197 ft | 465 kts | 270° |
| 2026-05-05 14:50 | 52.00608 | -14.41205 | 36196 ft | 465 kts | 270° |
| 2026-05-05 14:50 | 52.00522 | -14.51690 | 36199 ft | 464 kts | 270° |
| 2026-05-05 14:51 | 52.00427 | -14.62174 | 36200 ft | 464 kts | 270° |
| 2026-05-05 14:51 | 52.00323 | -14.72659 | 36201 ft | 464 kts | 270° |
| 2026-05-05 14:52 | 52.00210 | -14.83111 | 36203 ft | 464 kts | 269° |
| 2026-05-05 14:52 | 52.00105 | -14.93616 | 36213 ft | 464 kts | 271° |
| 2026-05-05 14:53 | 52.00349 | -14.98825 | 36489 ft | 461 kts | 279° |
| 2026-05-05 14:53 | 52.01018 | -15.03895 | 36824 ft | 459 kts | 287° |
| 2026-05-05 14:53 | 52.01983 | -15.08834 | 37100 ft | 459 kts | 289° |
| 2026-05-05 14:53 | 52.03035 | -15.13741 | 37208 ft | 462 kts | 290° |
| 2026-05-05 14:54 | 52.05253 | -15.23560 | 37198 ft | 466 kts | 290° |
| 2026-05-05 14:54 | 52.07494 | -15.33431 | 37200 ft | 466 kts | 290° |
| 2026-05-05 14:55 | 52.09711 | -15.43346 | 37204 ft | 466 kts | 290° |
| 2026-05-05 14:55 | 52.11902 | -15.53263 | 37204 ft | 466 kts | 289° |
| 2026-05-05 14:56 | 52.14086 | -15.63204 | 37197 ft | 466 kts | 289° |
| 2026-05-05 14:56 | 52.16259 | -15.73142 | 37198 ft | 466 kts | 289° |
| 2026-05-05 14:57 | 52.18424 | -15.83091 | 37208 ft | 466 kts | 289° |
| 2026-05-05 14:57 | 52.20584 | -15.93058 | 37208 ft | 466 kts | 289° |
| 2026-05-05 14:58 | 52.22719 | -16.02963 | 37220 ft | 466 kts | 289° |
| 2026-05-05 14:58 | 52.24861 | -16.12942 | 37214 ft | 466 kts | 289° |
| 2026-05-05 14:59 | 52.26992 | -16.22928 | 37216 ft | 466 kts | 289° |
| 2026-05-05 14:59 | 52.29117 | -16.32928 | 37217 ft | 466 kts | 289° |
| 2026-05-05 15:00 | 52.30890 | -16.41309 | 37219 ft | 466 kts | 289° |
| 2026-05-05 15:00 | 52.33340 | -16.52952 | 37221 ft | 466 kts | 289° |
| 2026-05-05 15:01 | 52.35437 | -16.62971 | 37231 ft | 466 kts | 289° |
| 2026-05-05 15:01 | 52.37530 | -16.73021 | 37224 ft | 467 kts | 289° |
| 2026-05-05 15:02 | 52.39615 | -16.83084 | 37215 ft | 467 kts | 289° |
| 2026-05-05 15:02 | 52.41690 | -16.93148 | 37236 ft | 467 kts | 288° |
| 2026-05-05 15:03 | 52.43757 | -17.03225 | 37220 ft | 467 kts | 288° |
| 2026-05-05 15:03 | 52.45816 | -17.13312 | 37224 ft | 467 kts | 288° |
| 2026-05-05 15:04 | 52.47866 | -17.23406 | 37220 ft | 466 kts | 288° |
| 2026-05-05 15:04 | 52.49891 | -17.33433 | 37224 ft | 466 kts | 288° |
| 2026-05-05 15:05 | 52.52936 | -17.48601 | 37228 ft | 466 kts | 288° |
| 2026-05-05 15:06 | 52.54956 | -17.58730 | 37231 ft | 466 kts | 288° |
| 2026-05-05 15:06 | 52.56966 | -17.68862 | 37231 ft | 466 kts | 288° |
| 2026-05-05 15:07 | 52.58967 | -17.79002 | 37221 ft | 466 kts | 288° |
| 2026-05-05 15:07 | 52.60960 | -17.89156 | 37242 ft | 466 kts | 288° |
| 2026-05-05 15:08 | 52.62944 | -17.99315 | 37231 ft | 466 kts | 288° |
| 2026-05-05 15:08 | 52.64923 | -18.09501 | 37233 ft | 467 kts | 288° |
| 2026-05-05 15:09 | 52.66892 | -18.19694 | 37241 ft | 467 kts | 288° |
| 2026-05-05 15:09 | 52.68854 | -18.29902 | 37238 ft | 467 kts | 288° |
| 2026-05-05 15:10 | 52.70806 | -18.40112 | 37254 ft | 467 kts | 288° |
| 2026-05-05 15:10 | 52.72746 | -18.50317 | 37255 ft | 466 kts | 288° |
| 2026-05-05 15:11 | 52.74354 | -18.58814 | 37251 ft | 467 kts | 287° |
| 2026-05-05 15:11 | 52.76280 | -18.69047 | 37260 ft | 466 kts | 287° |
| 2026-05-05 15:12 | 52.78195 | -18.79273 | 37254 ft | 467 kts | 287° |
| 2026-05-05 15:12 | 52.80107 | -18.89544 | 37249 ft | 467 kts | 287° |
| 2026-05-05 15:13 | 52.82316 | -19.01477 | 37237 ft | 467 kts | 287° |
| 2026-05-05 15:13 | 52.83900 | -19.10084 | 37239 ft | 467 kts | 287° |
| 2026-05-05 15:14 | 52.85783 | -19.20368 | 37245 ft | 467 kts | 287° |
| 2026-05-05 15:14 | 52.87647 | -19.30600 | 37255 ft | 467 kts | 287° |
| 2026-05-05 15:15 | 52.89512 | -19.40900 | 37264 ft | 467 kts | 287° |
| 2026-05-05 15:15 | 52.91372 | -19.51230 | 37255 ft | 468 kts | 287° |
| 2026-05-05 15:16 | 52.93225 | -19.61579 | 37258 ft | 469 kts | 287° |
| 2026-05-05 15:16 | 52.95034 | -19.71739 | 37253 ft | 468 kts | 287° |
| 2026-05-05 15:17 | 52.96870 | -19.82114 | 37258 ft | 468 kts | 287° |
| 2026-05-05 15:17 | 52.98695 | -19.92483 | 37256 ft | 468 kts | 287° |
| 2026-05-05 15:18 | 53.00061 | -20.03064 | 37260 ft | 470 kts | 277° |
| 2026-05-05 15:18 | 53.00625 | -20.13852 | 37261 ft | 470 kts | 275° |
| 2026-05-05 15:19 | 53.01052 | -20.24699 | 37259 ft | 471 kts | 275° |
| 2026-05-05 15:19 | 53.01459 | -20.35575 | 37259 ft | 472 kts | 275° |
| 2026-05-05 15:20 | 53.01868 | -20.46403 | 37259 ft | 473 kts | 275° |
| 2026-05-05 15:20 | 53.02277 | -20.57304 | 37263 ft | 473 kts | 275° |
| 2026-05-05 15:21 | 53.02679 | -20.68199 | 37268 ft | 473 kts | 275° |
| 2026-05-05 15:21 | 53.03070 | -20.79113 | 37257 ft | 473 kts | 275° |
| 2026-05-05 15:22 | 53.03451 | -20.90021 | 37267 ft | 472 kts | 275° |
| 2026-05-05 15:22 | 53.03822 | -21.00934 | 37264 ft | 472 kts | 275° |
| 2026-05-05 15:23 | 53.04180 | -21.11767 | 37269 ft | 473 kts | 275° |
| 2026-05-05 15:23 | 53.04530 | -21.22672 | 37266 ft | 473 kts | 275° |
| 2026-05-05 15:24 | 53.04871 | -21.33587 | 37265 ft | 473 kts | 275° |
| 2026-05-05 15:24 | 53.05202 | -21.44494 | 37269 ft | 473 kts | 275° |
| 2026-05-05 15:25 | 53.05523 | -21.55424 | 37269 ft | 474 kts | 275° |
| 2026-05-05 15:25 | 53.05835 | -21.66372 | 37268 ft | 474 kts | 275° |
| 2026-05-05 15:26 | 53.06136 | -21.77316 | 37270 ft | 474 kts | 275° |
| 2026-05-05 15:26 | 53.06426 | -21.88206 | 37252 ft | 474 kts | 275° |
| 2026-05-05 15:27 | 53.06706 | -21.99147 | 37277 ft | 474 kts | 275° |
| 2026-05-05 15:27 | 53.06978 | -22.10099 | 37277 ft | 474 kts | 274° |
| 2026-05-05 15:28 | 53.07240 | -22.21052 | 37273 ft | 474 kts | 274° |
| 2026-05-05 15:28 | 53.07491 | -22.32008 | 37280 ft | 474 kts | 274° |
| 2026-05-05 15:29 | 53.07732 | -22.42957 | 37251 ft | 474 kts | 274° |
| 2026-05-05 15:29 | 53.07963 | -22.53919 | 37279 ft | 474 kts | 274° |
| 2026-05-05 15:30 | 53.08184 | -22.64868 | 37281 ft | 474 kts | 274° |
| 2026-05-05 15:30 | 53.08395 | -22.75830 | 37279 ft | 474 kts | 274° |
| 2026-05-05 15:31 | 53.08595 | -22.86727 | 37283 ft | 474 kts | 274° |
| 2026-05-05 15:31 | 53.08786 | -22.97696 | 37281 ft | 475 kts | 274° |
| 2026-05-05 15:32 | 53.08967 | -23.08680 | 37284 ft | 475 kts | 274° |
| 2026-05-05 15:32 | 53.09138 | -23.19662 | 37284 ft | 475 kts | 274° |
| 2026-05-05 15:33 | 53.09299 | -23.30649 | 37284 ft | 475 kts | 274° |
| 2026-05-05 15:33 | 53.09450 | -23.41630 | 37284 ft | 475 kts | 274° |
| 2026-05-05 15:34 | 53.09591 | -23.52623 | 37285 ft | 475 kts | 274° |
| 2026-05-05 15:34 | 53.09721 | -23.63611 | 37285 ft | 475 kts | 274° |
| 2026-05-05 15:35 | 53.09842 | -23.74595 | 37286 ft | 475 kts | 274° |
| 2026-05-05 15:35 | 53.09952 | -23.85587 | 37286 ft | 475 kts | 274° |
| 2026-05-05 15:36 | 53.10053 | -23.96586 | 37290 ft | 476 kts | 274° |
| 2026-05-05 15:36 | 53.10143 | -24.07600 | 37289 ft | 476 kts | 274° |
| 2026-05-05 15:37 | 53.10223 | -24.18620 | 37289 ft | 476 kts | 274° |
| 2026-05-05 15:37 | 53.10292 | -24.29555 | 37290 ft | 476 kts | 274° |
| 2026-05-05 15:38 | 53.10353 | -24.40568 | 37293 ft | 476 kts | 274° |
| 2026-05-05 15:38 | 53.10402 | -24.51571 | 37292 ft | 476 kts | 274° |
| 2026-05-05 15:39 | 53.10442 | -24.62588 | 37294 ft | 476 kts | 274° |
| 2026-05-05 15:39 | 53.10471 | -24.73596 | 37295 ft | 476 kts | 274° |
| 2026-05-05 15:40 | 53.10490 | -24.84597 | 37297 ft | 475 kts | 274° |
| 2026-05-05 15:40 | 53.10499 | -24.95593 | 37295 ft | 475 kts | 274° |
| 2026-05-05 15:41 | 53.10498 | -25.06588 | 37295 ft | 475 kts | 274° |
| 2026-05-05 15:41 | 53.10487 | -25.17583 | 37298 ft | 476 kts | 274° |
| 2026-05-05 15:42 | 53.10466 | -25.28593 | 37291 ft | 476 kts | 274° |
| 2026-05-05 15:42 | 53.10434 | -25.39584 | 37290 ft | 475 kts | 274° |
| 2026-05-05 15:43 | 53.10393 | -25.50518 | 37301 ft | 475 kts | 274° |
| 2026-05-05 15:43 | 53.10341 | -25.61518 | 37308 ft | 475 kts | 273° |
| 2026-05-05 15:44 | 53.10280 | -25.72511 | 37298 ft | 475 kts | 273° |
| 2026-05-05 15:44 | 53.10208 | -25.83508 | 37299 ft | 475 kts | 273° |
| 2026-05-05 15:45 | 53.10126 | -25.94424 | 37303 ft | 474 kts | 273° |
| 2026-05-05 15:45 | 53.10034 | -26.05397 | 37303 ft | 475 kts | 273° |
| 2026-05-05 15:46 | 53.09932 | -26.16395 | 37301 ft | 475 kts | 273° |
| 2026-05-05 15:46 | 53.09820 | -26.27370 | 37303 ft | 475 kts | 273° |
| 2026-05-05 15:47 | 53.09697 | -26.38358 | 37282 ft | 474 kts | 273° |
| 2026-05-05 15:47 | 53.09565 | -26.49330 | 37304 ft | 474 kts | 273° |
| 2026-05-05 15:48 | 53.09422 | -26.60304 | 37303 ft | 474 kts | 273° |
| 2026-05-05 15:48 | 53.09270 | -26.71253 | 37305 ft | 474 kts | 273° |
| 2026-05-05 15:49 | 53.09109 | -26.82145 | 37307 ft | 474 kts | 272° |
| 2026-05-05 15:49 | 53.08937 | -26.93097 | 37308 ft | 474 kts | 272° |
| 2026-05-05 15:50 | 53.08754 | -27.04060 | 37310 ft | 474 kts | 272° |
| 2026-05-05 15:50 | 53.08562 | -27.15025 | 37311 ft | 474 kts | 272° |
| 2026-05-05 15:51 | 53.08359 | -27.25986 | 37312 ft | 474 kts | 272° |
| 2026-05-05 15:51 | 53.08146 | -27.36955 | 37309 ft | 474 kts | 272° |
| 2026-05-05 15:52 | 53.07923 | -27.47915 | 37268 ft | 475 kts | 272° |
| 2026-05-05 15:52 | 53.07690 | -27.58898 | 37301 ft | 475 kts | 272° |
| 2026-05-05 15:53 | 53.07446 | -27.69873 | 37305 ft | 474 kts | 272° |
| 2026-05-05 15:53 | 53.07193 | -27.80837 | 37301 ft | 475 kts | 272° |
| 2026-05-05 15:54 | 53.06929 | -27.91811 | 37307 ft | 475 kts | 272° |
| 2026-05-05 15:54 | 53.06656 | -28.02775 | 37302 ft | 475 kts | 272° |
| 2026-05-05 15:55 | 53.06372 | -28.13740 | 37308 ft | 474 kts | 271° |
| 2026-05-05 15:55 | 53.06081 | -28.24608 | 37307 ft | 473 kts | 271° |
| 2026-05-05 15:56 | 53.05778 | -28.35546 | 37305 ft | 474 kts | 271° |
| 2026-05-05 15:56 | 53.05465 | -28.46484 | 37307 ft | 474 kts | 271° |
| 2026-05-05 15:57 | 53.05142 | -28.57422 | 37304 ft | 474 kts | 271° |
| 2026-05-05 15:57 | 53.04814 | -28.68188 | 37295 ft | 473 kts | 271° |
| 2026-05-05 15:58 | 53.04472 | -28.79100 | 37301 ft | 473 kts | 271° |
| 2026-05-05 15:58 | 53.04119 | -28.90019 | 37300 ft | 473 kts | 270° |
| 2026-05-05 15:59 | 53.03756 | -29.00940 | 37300 ft | 473 kts | 270° |
| 2026-05-05 15:59 | 53.03384 | -29.11855 | 37295 ft | 473 kts | 270° |
| 2026-05-05 16:00 | 53.03066 | -29.20935 | 37291 ft | 473 kts | 270° |
| 2026-05-05 16:00 | 53.02675 | -29.31860 | 37295 ft | 473 kts | 270° |
| 2026-05-05 16:01 | 53.02273 | -29.42771 | 37295 ft | 473 kts | 270° |
| 2026-05-05 16:01 | 53.01863 | -29.53673 | 37292 ft | 473 kts | 269° |
| 2026-05-05 16:02 | 53.01442 | -29.64589 | 37293 ft | 473 kts | 269° |
| 2026-05-05 16:02 | 53.01011 | -29.75493 | 37289 ft | 473 kts | 269° |
| 2026-05-05 16:03 | 53.00573 | -29.86318 | 37296 ft | 472 kts | 269° |
| 2026-05-05 16:03 | 53.00136 | -29.97198 | 37283 ft | 472 kts | 270° |
| 2026-05-05 16:04 | 53.00334 | -30.08072 | 37289 ft | 471 kts | 275° |
| 2026-05-05 16:04 | 53.00757 | -30.18908 | 37282 ft | 471 kts | 276° |
| 2026-05-05 16:05 | 53.01209 | -30.29756 | 37285 ft | 471 kts | 276° |
| 2026-05-05 16:05 | 53.01644 | -30.40600 | 37291 ft | 470 kts | 275° |
| 2026-05-05 16:06 | 53.02060 | -30.51453 | 37291 ft | 470 kts | 275° |
| 2026-05-05 16:06 | 53.02464 | -30.62293 | 37275 ft | 471 kts | 275° |
| 2026-05-05 16:07 | 53.02858 | -30.73162 | 37267 ft | 471 kts | 275° |
| 2026-05-05 16:07 | 53.03242 | -30.84013 | 37281 ft | 472 kts | 274° |
| 2026-05-05 16:08 | 53.03618 | -30.94908 | 37277 ft | 473 kts | 273° |
| 2026-05-05 16:08 | 53.03982 | -31.05743 | 37258 ft | 472 kts | 273° |
| 2026-05-05 16:09 | 53.04336 | -31.16618 | 37267 ft | 472 kts | 273° |
| 2026-05-05 16:09 | 53.04682 | -31.27504 | 37268 ft | 472 kts | 273° |
| 2026-05-05 16:10 | 53.05017 | -31.38386 | 37253 ft | 472 kts | 273° |
| 2026-05-05 16:10 | 53.05342 | -31.49273 | 37260 ft | 472 kts | 273° |
| 2026-05-05 16:11 | 53.05658 | -31.60157 | 37255 ft | 472 kts | 272° |
| 2026-05-05 16:12 | 53.06261 | -31.81987 | 37250 ft | 473 kts | 271° |
| 2026-05-05 16:13 | 53.06960 | -32.09339 | 37239 ft | 473 kts | 271° |
| 2026-05-05 16:13 | 53.07222 | -32.20293 | 37232 ft | 474 kts | 270° |
| 2026-05-05 16:14 | 53.07716 | -32.42231 | 37233 ft | 475 kts | 270° |
| 2026-05-05 16:15 | 53.08170 | -32.64123 | 37239 ft | 476 kts | 270° |
| 2026-05-05 16:16 | 53.08585 | -32.86158 | 37220 ft | 477 kts | 270° |
| 2026-05-05 16:17 | 53.08870 | -33.02684 | 37216 ft | 477 kts | 270° |
| 2026-05-05 16:18 | 53.09132 | -33.19217 | 37210 ft | 476 kts | 269° |
| 2026-05-05 16:19 | 53.09371 | -33.35755 | 37204 ft | 476 kts | 269° |
| 2026-05-05 16:19 | 53.09588 | -33.52312 | 37202 ft | 478 kts | 269° |
| 2026-05-05 16:20 | 53.09840 | -33.74390 | 37189 ft | 479 kts | 269° |
| 2026-05-05 16:22 | 53.10100 | -34.02086 | 37199 ft | 479 kts | 268° |
| 2026-05-05 16:23 | 53.10261 | -34.24289 | 37165 ft | 481 kts | 268° |
| 2026-05-05 16:23 | 53.10356 | -34.40973 | 37163 ft | 482 kts | 268° |
| 2026-05-05 16:24 | 53.10406 | -34.52139 | 37157 ft | 483 kts | 268° |
| 2026-05-05 16:25 | 53.10461 | -34.68902 | 37156 ft | 483 kts | 267° |
| 2026-05-05 16:25 | 53.10494 | -34.85667 | 37154 ft | 483 kts | 267° |
| 2026-05-05 16:26 | 53.10500 | -35.07962 | 37143 ft | 483 kts | 267° |
| 2026-05-05 16:27 | 53.10487 | -35.19148 | 37138 ft | 483 kts | 267° |
| 2026-05-05 16:27 | 53.10464 | -35.30345 | 37142 ft | 485 kts | 266° |
| 2026-05-05 16:28 | 53.10429 | -35.41594 | 37128 ft | 486 kts | 266° |
| 2026-05-05 16:28 | 53.10385 | -35.52849 | 37130 ft | 487 kts | 266° |
| 2026-05-05 16:29 | 53.10330 | -35.64109 | 37123 ft | 486 kts | 266° |
| 2026-05-05 16:29 | 53.10264 | -35.75374 | 37130 ft | 487 kts | 266° |
| 2026-05-05 16:30 | 53.10189 | -35.86559 | 37129 ft | 487 kts | 266° |
| 2026-05-05 16:30 | 53.10102 | -35.97803 | 37133 ft | 484 kts | 266° |
| 2026-05-05 16:31 | 53.10005 | -36.08989 | 37126 ft | 483 kts | 265° |
| 2026-05-05 16:31 | 53.09897 | -36.20175 | 37122 ft | 483 kts | 265° |
| 2026-05-05 16:32 | 53.09779 | -36.31351 | 37120 ft | 483 kts | 265° |
| 2026-05-05 16:32 | 53.09651 | -36.42542 | 37128 ft | 483 kts | 265° |
| 2026-05-05 16:33 | 53.09512 | -36.53720 | 37131 ft | 482 kts | 265° |
| 2026-05-05 16:33 | 53.09363 | -36.64845 | 37132 ft | 480 kts | 265° |
| 2026-05-05 16:34 | 53.09205 | -36.75950 | 37125 ft | 480 kts | 265° |
| 2026-05-05 16:34 | 53.09036 | -36.86975 | 37129 ft | 480 kts | 265° |
| 2026-05-05 16:35 | 53.08857 | -36.98085 | 37149 ft | 480 kts | 265° |
| 2026-05-05 16:35 | 53.08667 | -37.09222 | 37127 ft | 483 kts | 265° |
| 2026-05-05 16:36 | 53.08465 | -37.20396 | 37129 ft | 482 kts | 265° |
| 2026-05-05 16:36 | 53.08255 | -37.31523 | 37135 ft | 481 kts | 265° |
| 2026-05-05 16:37 | 53.08034 | -37.42642 | 37136 ft | 481 kts | 264° |
| 2026-05-05 16:37 | 53.07802 | -37.53746 | 37136 ft | 481 kts | 264° |
| 2026-05-05 16:38 | 53.07561 | -37.64854 | 37132 ft | 481 kts | 264° |
| 2026-05-05 16:38 | 53.07308 | -37.75966 | 37140 ft | 481 kts | 264° |
| 2026-05-05 16:39 | 53.07047 | -37.87044 | 37155 ft | 479 kts | 264° |
| 2026-05-05 16:39 | 53.06775 | -37.98123 | 37144 ft | 481 kts | 264° |
| 2026-05-05 16:40 | 53.06492 | -38.09230 | 37125 ft | 481 kts | 264° |
| 2026-05-05 16:40 | 53.06199 | -38.20334 | 37142 ft | 481 kts | 264° |
| 2026-05-05 16:41 | 53.05895 | -38.31451 | 37138 ft | 481 kts | 264° |
| 2026-05-05 16:41 | 53.05581 | -38.42542 | 37129 ft | 481 kts | 264° |
| 2026-05-05 16:42 | 53.05258 | -38.53587 | 37127 ft | 480 kts | 264° |
| 2026-05-05 16:42 | 53.04923 | -38.64673 | 37127 ft | 480 kts | 264° |
| 2026-05-05 16:43 | 53.04578 | -38.75770 | 37151 ft | 480 kts | 264° |
| 2026-05-05 16:43 | 53.04222 | -38.86882 | 37127 ft | 482 kts | 263° |
| 2026-05-05 16:44 | 53.03855 | -38.98014 | 37126 ft | 482 kts | 263° |
| 2026-05-05 16:44 | 53.03479 | -39.09139 | 37126 ft | 482 kts | 263° |
| 2026-05-05 16:45 | 53.03091 | -39.20274 | 37124 ft | 483 kts | 263° |
| 2026-05-05 16:45 | 53.02693 | -39.31402 | 37125 ft | 483 kts | 263° |
| 2026-05-05 16:46 | 53.02284 | -39.42527 | 37124 ft | 483 kts | 263° |
| 2026-05-05 16:46 | 53.01866 | -39.53649 | 37118 ft | 482 kts | 263° |
| 2026-05-05 16:47 | 53.01439 | -39.64699 | 37144 ft | 482 kts | 263° |
| 2026-05-05 16:47 | 53.01000 | -39.75813 | 37112 ft | 483 kts | 263° |
| 2026-05-05 16:48 | 53.00623 | -39.85143 | 37116 ft | 483 kts | 263° |
| 2026-05-05 16:48 | 53.00163 | -39.96280 | 37117 ft | 483 kts | 263° |
| 2026-05-05 16:49 | 52.99660 | -40.07314 | 37116 ft | 483 kts | 261° |
| 2026-05-05 16:49 | 52.99004 | -40.18411 | 37113 ft | 482 kts | 261° |
| 2026-05-05 16:50 | 52.98324 | -40.29491 | 37108 ft | 482 kts | 261° |
| 2026-05-05 16:50 | 52.97656 | -40.40553 | 37107 ft | 481 kts | 261° |
| 2026-05-05 16:51 | 52.96991 | -40.51598 | 37109 ft | 481 kts | 261° |
| 2026-05-05 16:51 | 52.96318 | -40.62642 | 37101 ft | 483 kts | 261° |
| 2026-05-05 16:52 | 52.95629 | -40.73758 | 37100 ft | 484 kts | 261° |
| 2026-05-05 16:52 | 52.94931 | -40.84854 | 37099 ft | 483 kts | 261° |
| 2026-05-05 16:53 | 52.94224 | -40.95911 | 37097 ft | 482 kts | 261° |
| 2026-05-05 16:53 | 52.93507 | -41.06964 | 37089 ft | 482 kts | 260° |
| 2026-05-05 16:54 | 52.92780 | -41.18006 | 37090 ft | 482 kts | 260° |
| 2026-05-05 16:54 | 52.92048 | -41.28964 | 37082 ft | 482 kts | 260° |
| 2026-05-05 16:55 | 52.91301 | -41.39999 | 37083 ft | 482 kts | 260° |
| 2026-05-05 16:55 | 52.90545 | -41.51013 | 37092 ft | 481 kts | 260° |
| 2026-05-05 16:56 | 52.89778 | -41.62029 | 37079 ft | 482 kts | 260° |
| 2026-05-05 16:56 | 52.88999 | -41.73053 | 37075 ft | 482 kts | 260° |
| 2026-05-05 16:57 | 52.88212 | -41.84067 | 37072 ft | 482 kts | 260° |
| 2026-05-05 16:57 | 52.87413 | -41.95085 | 37071 ft | 482 kts | 259° |
| 2026-05-05 16:58 | 52.86605 | -42.06095 | 37064 ft | 481 kts | 259° |
| 2026-05-05 16:58 | 52.85788 | -42.17082 | 37067 ft | 481 kts | 259° |
| 2026-05-05 16:59 | 52.84961 | -42.28062 | 37064 ft | 481 kts | 259° |
| 2026-05-05 16:59 | 52.84129 | -42.38972 | 37065 ft | 481 kts | 259° |
| 2026-05-05 17:00 | 52.83278 | -42.49971 | 37049 ft | 483 kts | 259° |
| 2026-05-05 17:00 | 52.82418 | -42.60977 | 37076 ft | 483 kts | 259° |
| 2026-05-05 17:01 | 52.81547 | -42.71982 | 37051 ft | 482 kts | 259° |
| 2026-05-05 17:01 | 52.80668 | -42.82963 | 37039 ft | 482 kts | 259° |
| 2026-05-05 17:02 | 52.79778 | -42.93950 | 37039 ft | 482 kts | 259° |
| 2026-05-05 17:02 | 52.78878 | -43.04929 | 37034 ft | 482 kts | 259° |
| 2026-05-05 17:03 | 52.77967 | -43.15902 | 37026 ft | 482 kts | 259° |
| 2026-05-05 17:03 | 52.77047 | -43.26865 | 37047 ft | 481 kts | 259° |
| 2026-05-05 17:04 | 52.76116 | -43.37830 | 37020 ft | 483 kts | 259° |
| 2026-05-05 17:04 | 52.75180 | -43.48739 | 37010 ft | 483 kts | 259° |
| 2026-05-05 17:05 | 52.74226 | -43.59727 | 37009 ft | 483 kts | 259° |
| 2026-05-05 17:05 | 52.73264 | -43.70700 | 37004 ft | 483 kts | 259° |
| 2026-05-05 17:06 | 52.72291 | -43.81667 | 37001 ft | 483 kts | 259° |
| 2026-05-05 17:06 | 52.71311 | -43.92600 | 36993 ft | 481 kts | 258° |
| 2026-05-05 17:07 | 52.70320 | -44.03523 | 36991 ft | 481 kts | 258° |
| 2026-05-05 17:07 | 52.69321 | -44.14429 | 36985 ft | 481 kts | 258° |
| 2026-05-05 17:08 | 52.68310 | -44.25351 | 36974 ft | 483 kts | 258° |
| 2026-05-05 17:08 | 52.67287 | -44.36294 | 36974 ft | 483 kts | 258° |
| 2026-05-05 17:09 | 52.66261 | -44.47155 | 36968 ft | 482 kts | 258° |
| 2026-05-05 17:09 | 52.65214 | -44.58125 | 36966 ft | 481 kts | 258° |
| 2026-05-05 17:10 | 52.64171 | -44.68936 | 36963 ft | 481 kts | 258° |
| 2026-05-05 17:10 | 52.63112 | -44.79809 | 36963 ft | 481 kts | 258° |
| 2026-05-05 17:11 | 52.62043 | -44.90678 | 36947 ft | 481 kts | 258° |
| 2026-05-05 17:11 | 52.60965 | -45.01542 | 36946 ft | 481 kts | 258° |
| 2026-05-05 17:12 | 52.59875 | -45.12412 | 36944 ft | 481 kts | 258° |
| 2026-05-05 17:12 | 52.58776 | -45.23267 | 36933 ft | 481 kts | 258° |
| 2026-05-05 17:13 | 52.57667 | -45.34121 | 36927 ft | 481 kts | 258° |
| 2026-05-05 17:13 | 52.56555 | -45.44895 | 36928 ft | 481 kts | 258° |
| 2026-05-05 17:14 | 52.55428 | -45.55724 | 36941 ft | 481 kts | 258° |
| 2026-05-05 17:14 | 52.54291 | -45.66543 | 36924 ft | 479 kts | 258° |
| 2026-05-05 17:15 | 52.53149 | -45.77318 | 36925 ft | 479 kts | 257° |
| 2026-05-05 17:15 | 52.51995 | -45.88097 | 36922 ft | 479 kts | 257° |
| 2026-05-05 17:16 | 52.50831 | -45.98876 | 36915 ft | 479 kts | 257° |
| 2026-05-05 17:16 | 52.49657 | -46.09654 | 36910 ft | 479 kts | 257° |
| 2026-05-05 17:17 | 52.48474 | -46.20418 | 36907 ft | 479 kts | 257° |
| 2026-05-05 17:17 | 52.47292 | -46.31081 | 36899 ft | 478 kts | 257° |
| 2026-05-05 17:18 | 52.46091 | -46.41814 | 36898 ft | 478 kts | 257° |
| 2026-05-05 17:18 | 52.44883 | -46.52527 | 36898 ft | 478 kts | 257° |
| 2026-05-05 17:19 | 52.43665 | -46.63241 | 36878 ft | 478 kts | 257° |
| 2026-05-05 17:19 | 52.42436 | -46.73943 | 36878 ft | 478 kts | 257° |
| 2026-05-05 17:20 | 52.41200 | -46.84629 | 36890 ft | 477 kts | 257° |
| 2026-05-05 17:20 | 52.39954 | -46.95302 | 36871 ft | 478 kts | 257° |
| 2026-05-05 17:21 | 52.38698 | -47.05981 | 36864 ft | 477 kts | 257° |
| 2026-05-05 17:22 | 52.36798 | -47.21975 | 36861 ft | 477 kts | 257° |
| 2026-05-05 17:22 | 52.35517 | -47.32643 | 36865 ft | 477 kts | 257° |
| 2026-05-05 17:23 | 52.34230 | -47.43278 | 36856 ft | 477 kts | 257° |
| 2026-05-05 17:23 | 52.32942 | -47.53839 | 36855 ft | 476 kts | 257° |
| 2026-05-05 17:24 | 52.31636 | -47.64462 | 36852 ft | 476 kts | 257° |
| 2026-05-05 17:24 | 52.30320 | -47.75077 | 36852 ft | 477 kts | 257° |
| 2026-05-05 17:25 | 52.28992 | -47.85707 | 36842 ft | 478 kts | 256° |
| 2026-05-05 17:25 | 52.27657 | -47.96318 | 36838 ft | 477 kts | 257° |
| 2026-05-05 17:26 | 52.26312 | -48.06921 | 36827 ft | 476 kts | 257° |
| 2026-05-05 17:26 | 52.24958 | -48.17514 | 36826 ft | 477 kts | 256° |
| 2026-05-05 17:27 | 52.23603 | -48.28036 | 36825 ft | 477 kts | 256° |
| 2026-05-05 17:27 | 52.22232 | -48.38603 | 36831 ft | 476 kts | 256° |
| 2026-05-05 17:28 | 52.20849 | -48.49178 | 36812 ft | 476 kts | 256° |
| 2026-05-05 17:28 | 52.19460 | -48.59726 | 36823 ft | 476 kts | 256° |
| 2026-05-05 17:29 | 52.18062 | -48.70271 | 36811 ft | 476 kts | 256° |
| 2026-05-05 17:29 | 52.16652 | -48.80822 | 36797 ft | 476 kts | 256° |
| 2026-05-05 17:30 | 52.15234 | -48.91356 | 36801 ft | 477 kts | 256° |
| 2026-05-05 17:30 | 52.13806 | -49.01887 | 36802 ft | 476 kts | 256° |
| 2026-05-05 17:31 | 52.12371 | -49.12392 | 36784 ft | 475 kts | 256° |
| 2026-05-05 17:31 | 52.10930 | -49.22869 | 36784 ft | 474 kts | 256° |
| 2026-05-05 17:32 | 52.09480 | -49.33333 | 36785 ft | 474 kts | 256° |
| 2026-05-05 17:32 | 52.08021 | -49.43786 | 36785 ft | 474 kts | 256° |
| 2026-05-05 17:33 | 52.06562 | -49.54176 | 36771 ft | 474 kts | 256° |
| 2026-05-05 17:33 | 52.05083 | -49.64627 | 36769 ft | 474 kts | 256° |
| 2026-05-05 17:34 | 52.03596 | -49.75073 | 36769 ft | 474 kts | 256° |
| 2026-05-05 17:34 | 52.02102 | -49.85486 | 36759 ft | 474 kts | 256° |
| 2026-05-05 17:35 | 52.00597 | -49.95913 | 36760 ft | 473 kts | 256° |
| 2026-05-05 17:35 | 51.98553 | -50.06049 | 36760 ft | 473 kts | 249° |
| 2026-05-05 17:36 | 51.96192 | -50.16002 | 36746 ft | 473 kts | 248° |
| 2026-05-05 17:36 | 51.94185 | -50.24241 | 36747 ft | 473 kts | 248° |
| 2026-05-05 17:37 | 51.91371 | -50.35755 | 36750 ft | 473 kts | 248° |
| 2026-05-05 17:37 | 51.88950 | -50.45661 | 36736 ft | 474 kts | 248° |
| 2026-05-05 17:38 | 51.86518 | -50.55588 | 36750 ft | 474 kts | 248° |
| 2026-05-05 17:38 | 51.84474 | -50.63895 | 36741 ft | 474 kts | 248° |
| 2026-05-05 17:39 | 51.82028 | -50.73792 | 36739 ft | 474 kts | 248° |
| 2026-05-05 17:39 | 51.79572 | -50.83686 | 36737 ft | 474 kts | 248° |
| 2026-05-05 17:40 | 51.77110 | -50.93559 | 36736 ft | 474 kts | 248° |
| 2026-05-05 17:40 | 51.74639 | -51.03428 | 36733 ft | 474 kts | 248° |
| 2026-05-05 17:41 | 51.72175 | -51.13220 | 36729 ft | 474 kts | 248° |
| 2026-05-05 17:41 | 51.69690 | -51.23056 | 36732 ft | 474 kts | 248° |
| 2026-05-05 17:42 | 51.67195 | -51.32886 | 36725 ft | 474 kts | 248° |
| 2026-05-05 17:42 | 51.64694 | -51.42699 | 36727 ft | 474 kts | 248° |
| 2026-05-05 17:43 | 51.62181 | -51.52513 | 36715 ft | 474 kts | 248° |
| 2026-05-05 17:43 | 51.59661 | -51.62312 | 36722 ft | 473 kts | 248° |
| 2026-05-05 17:44 | 51.57138 | -51.72080 | 36730 ft | 473 kts | 248° |
| 2026-05-05 17:44 | 51.54609 | -51.81833 | 36732 ft | 473 kts | 248° |
| 2026-05-05 17:45 | 51.52070 | -51.91580 | 36724 ft | 473 kts | 248° |
| 2026-05-05 17:45 | 51.49541 | -52.01245 | 36717 ft | 472 kts | 248° |
| 2026-05-05 17:46 | 51.46976 | -52.11010 | 36718 ft | 471 kts | 248° |
| 2026-05-05 17:46 | 51.44423 | -52.20684 | 36723 ft | 471 kts | 248° |
| 2026-05-05 17:47 | 51.41879 | -52.30284 | 36711 ft | 471 kts | 248° |
| 2026-05-05 17:47 | 51.39311 | -52.39938 | 36713 ft | 471 kts | 248° |
| 2026-05-05 17:48 | 51.36734 | -52.49579 | 36725 ft | 471 kts | 248° |
| 2026-05-05 17:48 | 51.34154 | -52.59194 | 36725 ft | 470 kts | 248° |
| 2026-05-05 17:49 | 51.31565 | -52.68804 | 36720 ft | 471 kts | 248° |
| 2026-05-05 17:49 | 51.28968 | -52.78404 | 36716 ft | 471 kts | 247° |
| 2026-05-05 17:50 | 51.26359 | -52.88007 | 36709 ft | 471 kts | 247° |
| 2026-05-05 17:50 | 51.23746 | -52.97582 | 36717 ft | 469 kts | 247° |
| 2026-05-05 17:51 | 51.21134 | -53.07119 | 36717 ft | 468 kts | 247° |
| 2026-05-05 17:51 | 51.18520 | -53.16623 | 36707 ft | 468 kts | 247° |
| 2026-05-05 17:52 | 51.15532 | -53.25848 | 37136 ft | 469 kts | 239° |
| 2026-05-05 17:52 | 51.13793 | -53.30151 | 37460 ft | 468 kts | 238° |
| 2026-05-05 17:52 | 51.11992 | -53.34473 | 37674 ft | 470 kts | 237° |
| 2026-05-05 17:53 | 51.08326 | -53.43087 | 37715 ft | 469 kts | 237° |
| 2026-05-05 17:53 | 51.04658 | -53.51642 | 37716 ft | 468 kts | 237° |
| 2026-05-05 17:54 | 51.00994 | -53.60193 | 37715 ft | 468 kts | 237° |
| 2026-05-05 17:54 | 50.97330 | -53.68736 | 37720 ft | 468 kts | 237° |
| 2026-05-05 17:55 | 50.93651 | -53.77290 | 37721 ft | 471 kts | 237° |
| 2026-05-05 17:55 | 50.89942 | -53.85883 | 37721 ft | 472 kts | 237° |
| 2026-05-05 17:56 | 50.86224 | -53.94468 | 37722 ft | 472 kts | 237° |
| 2026-05-05 17:56 | 50.82498 | -54.03042 | 37724 ft | 473 kts | 237° |
| 2026-05-05 17:57 | 50.78762 | -54.11613 | 37724 ft | 475 kts | 237° |
| 2026-05-05 17:57 | 50.75003 | -54.20209 | 37730 ft | 476 kts | 237° |
| 2026-05-05 17:58 | 50.71229 | -54.28808 | 37729 ft | 477 kts | 237° |
| 2026-05-05 17:58 | 50.67450 | -54.37393 | 37728 ft | 477 kts | 237° |
| 2026-05-05 17:59 | 50.63682 | -54.45921 | 37726 ft | 477 kts | 237° |
| 2026-05-05 17:59 | 50.59876 | -54.54512 | 37733 ft | 479 kts | 237° |
| 2026-05-05 18:00 | 50.56057 | -54.63101 | 37731 ft | 479 kts | 237° |
| 2026-05-05 18:00 | 50.52227 | -54.71694 | 37738 ft | 479 kts | 237° |
| 2026-05-05 18:01 | 50.48394 | -54.80255 | 37737 ft | 479 kts | 237° |
| 2026-05-05 18:01 | 50.44561 | -54.88790 | 37740 ft | 479 kts | 237° |
| 2026-05-05 18:02 | 50.40717 | -54.97325 | 37737 ft | 479 kts | 236° |
| 2026-05-05 18:02 | 50.36865 | -55.05849 | 37732 ft | 479 kts | 236° |
| 2026-05-05 18:03 | 50.33006 | -55.14361 | 37733 ft | 479 kts | 237° |
| 2026-05-05 18:03 | 50.29178 | -55.22777 | 37733 ft | 477 kts | 237° |
| 2026-05-05 18:04 | 50.25331 | -55.31207 | 37746 ft | 476 kts | 237° |
| 2026-05-05 18:04 | 50.21477 | -55.39628 | 37746 ft | 476 kts | 237° |
| 2026-05-05 18:05 | 50.17618 | -55.48031 | 37739 ft | 476 kts | 237° |
| 2026-05-05 18:05 | 50.13741 | -55.56445 | 37742 ft | 473 kts | 237° |
| 2026-05-05 18:06 | 50.09920 | -55.64714 | 37731 ft | 473 kts | 237° |
| 2026-05-05 18:06 | 50.06074 | -55.73012 | 37738 ft | 473 kts | 237° |
| 2026-05-05 18:07 | 50.02216 | -55.81309 | 37726 ft | 472 kts | 237° |
| 2026-05-05 18:07 | 49.98370 | -55.89552 | 37743 ft | 470 kts | 237° |
| 2026-05-05 18:08 | 49.94527 | -55.97765 | 37751 ft | 469 kts | 237° |
| 2026-05-05 18:08 | 49.90685 | -56.05952 | 37750 ft | 469 kts | 237° |
| 2026-05-05 18:09 | 49.86832 | -56.14136 | 37734 ft | 469 kts | 237° |
| 2026-05-05 18:09 | 49.83006 | -56.22235 | 37757 ft | 468 kts | 237° |
| 2026-05-05 18:10 | 49.79157 | -56.30356 | 37756 ft | 467 kts | 237° |
| 2026-05-05 18:10 | 49.75308 | -56.38457 | 37768 ft | 467 kts | 237° |
| 2026-05-05 18:11 | 49.71448 | -56.46554 | 37768 ft | 467 kts | 237° |
| 2026-05-05 18:11 | 49.67596 | -56.54611 | 37768 ft | 465 kts | 237° |
| 2026-05-05 18:12 | 49.63746 | -56.62637 | 37775 ft | 464 kts | 237° |
| 2026-05-05 18:12 | 49.59901 | -56.70632 | 37775 ft | 464 kts | 237° |
| 2026-05-05 18:13 | 49.56046 | -56.78623 | 37792 ft | 465 kts | 237° |
| 2026-05-05 18:13 | 49.52214 | -56.86539 | 37776 ft | 462 kts | 237° |
| 2026-05-05 18:14 | 49.48374 | -56.94450 | 37776 ft | 461 kts | 237° |
| 2026-05-05 18:14 | 49.44531 | -57.02347 | 37809 ft | 461 kts | 237° |
| 2026-05-05 18:15 | 49.40688 | -57.10219 | 37790 ft | 461 kts | 237° |
| 2026-05-05 18:15 | 49.36834 | -57.18089 | 37801 ft | 461 kts | 237° |
| 2026-05-05 18:16 | 49.33076 | -57.25742 | 37806 ft | 460 kts | 237° |
| 2026-05-05 18:16 | 49.29218 | -57.33575 | 37806 ft | 460 kts | 237° |
| 2026-05-05 18:17 | 49.25355 | -57.41396 | 37818 ft | 460 kts | 237° |
| 2026-05-05 18:17 | 49.21516 | -57.49146 | 37803 ft | 461 kts | 236° |
| 2026-05-05 18:18 | 49.17633 | -57.56960 | 37809 ft | 461 kts | 236° |
| 2026-05-05 18:18 | 49.13752 | -57.64746 | 37815 ft | 461 kts | 236° |
| 2026-05-05 18:19 | 49.09862 | -57.72528 | 37824 ft | 461 kts | 236° |
| 2026-05-05 18:19 | 49.05969 | -57.80297 | 37829 ft | 461 kts | 236° |
| 2026-05-05 18:20 | 49.02066 | -57.88060 | 37847 ft | 461 kts | 236° |
| 2026-05-05 18:20 | 48.98157 | -57.95812 | 37847 ft | 461 kts | 236° |
| 2026-05-05 18:21 | 48.94244 | -58.03551 | 37863 ft | 461 kts | 236° |
| 2026-05-05 18:21 | 48.90323 | -58.11283 | 37860 ft | 461 kts | 236° |
| 2026-05-05 18:22 | 48.86399 | -58.18999 | 37875 ft | 461 kts | 236° |
| 2026-05-05 18:22 | 48.82468 | -58.26707 | 37874 ft | 461 kts | 236° |
| 2026-05-05 18:23 | 48.78535 | -58.34396 | 37886 ft | 461 kts | 236° |
| 2026-05-05 18:23 | 48.74620 | -58.42028 | 37887 ft | 462 kts | 236° |
| 2026-05-05 18:24 | 48.70673 | -58.49702 | 37891 ft | 462 kts | 236° |
| 2026-05-05 18:24 | 48.66718 | -58.57367 | 37899 ft | 462 kts | 235° |
| 2026-05-05 18:25 | 48.62758 | -58.65022 | 37919 ft | 462 kts | 235° |
| 2026-05-05 18:25 | 48.59450 | -58.71399 | 37905 ft | 462 kts | 235° |
| 2026-05-05 18:26 | 48.55475 | -58.79043 | 37909 ft | 463 kts | 235° |
| 2026-05-05 18:26 | 48.51492 | -58.86679 | 37910 ft | 463 kts | 235° |
| 2026-05-05 18:27 | 48.47502 | -58.94308 | 37909 ft | 463 kts | 235° |
| 2026-05-05 18:27 | 48.43508 | -59.01921 | 37900 ft | 463 kts | 236° |
| 2026-05-05 18:28 | 48.37526 | -59.13285 | 37903 ft | 461 kts | 235° |
| 2026-05-05 18:28 | 48.33536 | -59.20839 | 37904 ft | 461 kts | 235° |
| 2026-05-05 18:29 | 48.29543 | -59.28378 | 37905 ft | 461 kts | 235° |
| 2026-05-05 18:29 | 48.25546 | -59.35902 | 37896 ft | 460 kts | 236° |
| 2026-05-05 18:30 | 48.21566 | -59.43372 | 37898 ft | 458 kts | 236° |
| 2026-05-05 18:30 | 48.17583 | -59.50829 | 37917 ft | 458 kts | 236° |
| 2026-05-05 18:31 | 48.13620 | -59.58229 | 37921 ft | 458 kts | 235° |
| 2026-05-05 18:31 | 48.09630 | -59.65657 | 37923 ft | 457 kts | 236° |
| 2026-05-05 18:32 | 48.05663 | -59.73022 | 37907 ft | 453 kts | 236° |
| 2026-05-05 18:32 | 48.01712 | -59.80338 | 37907 ft | 452 kts | 236° |
| 2026-05-05 18:33 | 47.97756 | -59.87644 | 37908 ft | 452 kts | 236° |
| 2026-05-05 18:33 | 47.93805 | -59.94922 | 37903 ft | 450 kts | 235° |
| 2026-05-05 18:34 | 47.89868 | -60.02151 | 37903 ft | 449 kts | 235° |
| 2026-05-05 18:34 | 47.85931 | -60.09364 | 37927 ft | 449 kts | 235° |
| 2026-05-05 18:35 | 47.83959 | -60.12973 | 38165 ft | 449 kts | 235° |
| 2026-05-05 18:35 | 47.81989 | -60.16569 | 38544 ft | 447 kts | 235° |
| 2026-05-05 18:35 | 47.80023 | -60.20154 | 38765 ft | 446 kts | 234° |
| 2026-05-05 18:35 | 47.78061 | -60.23728 | 38998 ft | 446 kts | 234° |
| 2026-05-05 18:36 | 47.76097 | -60.27300 | 39192 ft | 447 kts | 234° |
| 2026-05-05 18:36 | 47.74126 | -60.30882 | 39342 ft | 448 kts | 234° |
| 2026-05-05 18:36 | 47.72152 | -60.34463 | 39507 ft | 449 kts | 234° |
| 2026-05-05 18:36 | 47.70174 | -60.38047 | 39661 ft | 449 kts | 234° |
| 2026-05-05 18:37 | 47.68190 | -60.41636 | 39816 ft | 450 kts | 234° |
| 2026-05-05 18:37 | 47.66196 | -60.45238 | 39895 ft | 451 kts | 234° |
| 2026-05-05 18:37 | 47.62214 | -60.52416 | 39892 ft | 450 kts | 234° |
| 2026-05-05 18:38 | 47.58232 | -60.59573 | 39892 ft | 449 kts | 234° |
| 2026-05-05 18:38 | 47.54253 | -60.66709 | 39888 ft | 449 kts | 233° |
| 2026-05-05 18:39 | 47.50295 | -60.73790 | 39883 ft | 449 kts | 233° |
| 2026-05-05 18:39 | 47.46308 | -60.80904 | 39872 ft | 449 kts | 233° |
| 2026-05-05 18:40 | 47.42318 | -60.88004 | 39879 ft | 449 kts | 233° |
| 2026-05-05 18:40 | 47.38324 | -60.95092 | 39878 ft | 449 kts | 233° |
| 2026-05-05 18:41 | 47.34323 | -61.02175 | 39877 ft | 449 kts | 233° |
| 2026-05-05 18:41 | 47.30324 | -61.09235 | 39878 ft | 449 kts | 233° |
| 2026-05-05 18:42 | 47.26318 | -61.16290 | 39878 ft | 449 kts | 233° |